Terminal Aerodrome Forecast
Issued by NWS

Home | Current Version | Previous Version | Text Only | Print | Product List | Glossary On
Versions: 1 2 3 4 5 6 7 8 9 10 11 12 13 14
219
FTUS45 KABQ 240530
TAFSAF
TAF
KSAF 240530Z 2406/2506 20006KT P6SM BKN250
     FM241500 24015G25KT P6SM SCT250
     FM241800 25022G32KT P6SM SCT200
     FM242100 26027G40KT P6SM SCT150=

USA.gov is the U.S. government's official web portal to all federal, state and local government web resources and services.